Time;durP1;ratioP1;P1;durP2;ratioP2;P2;SDS_P1;SDS_P2;PMS_P1;PMS_P2;Temp;Humidity;BMP_temperature;BMP_pressure;BME280_temperature;BME280_humidity;BME280_pressure;Samples;Min_cycle;Max_cycle;Signal;HPM_P1;HPM_P2
2023/06/11 00:00:09;;;;;;;5.40;4.30;;;;;;;26.47;37.70;101363.09;6196688;23;20099;-66
2023/06/11 00:02:39;;;;;;;6.50;4.53;;;;;;;26.46;37.68;101366.16;6198194;23;20029;-66
2023/06/11 00:05:09;;;;;;;6.28;4.63;;;;;;;26.44;37.95;101366.47;6198554;23;20032;-66
2023/06/11 00:07:38;;;;;;;8.65;4.70;;;;;;;26.41;37.91;101361.59;6197862;23;20454;-65
2023/06/11 00:10:07;;;;;;;6.38;4.50;;;;;;;26.39;37.74;101363.03;6197873;23;20040;-66
2023/06/11 00:12:34;;;;;;;7.18;4.47;;;;;;;26.38;37.91;101359.47;6196969;23;20032;-65
2023/06/11 00:15:04;;;;;;;5.30;4.32;;;;;;;26.36;37.82;101358.97;6197913;23;20040;-66
2023/06/11 00:17:33;;;;;;;6.03;4.40;;;;;;;26.35;37.86;101360.09;6198019;23;20031;-66
2023/06/11 00:20:03;;;;;;;5.65;4.53;;;;;;;26.33;37.76;101354.09;6198012;23;20021;-66
2023/06/11 00:22:31;;;;;;;6.22;4.20;;;;;;;26.33;37.93;101362.38;6198191;23;20031;-67
2023/06/11 00:24:59;;;;;;;5.90;4.82;;;;;;;26.31;38.15;101355.50;6197665;23;20025;-66
2023/06/11 00:27:27;;;;;;;5.68;4.28;;;;;;;26.28;37.94;101349.50;6197097;23;20021;-66
2023/06/11 00:29:55;;;;;;;7.13;4.20;;;;;;;26.27;38.09;101353.38;6196782;23;20482;-66
2023/06/11 00:32:24;;;;;;;6.57;4.47;;;;;;;26.27;37.95;101360.84;6198268;23;20025;-67
2023/06/11 00:34:53;;;;;;;6.15;4.35;;;;;;;26.21;38.19;101345.56;6197379;23;20044;-66
2023/06/11 00:37:22;;;;;;;5.95;4.43;;;;;;;26.24;38.07;101355.94;6197311;23;20017;-65
2023/06/11 00:39:49;;;;;;;8.35;4.78;;;;;;;26.21;38.12;101346.38;6196573;23;20060;-66
2023/06/11 00:42:19;;;;;;;6.15;4.88;;;;;;;26.19;38.20;101348.63;6196749;23;20029;-66
2023/06/11 00:44:47;;;;;;;6.15;4.38;;;;;;;26.19;38.16;101350.56;6198117;23;20025;-65
2023/06/11 00:47:16;;;;;;;6.50;4.20;;;;;;;26.17;38.21;101342.63;6197309;23;20031;-64
2023/06/11 00:49:45;;;;;;;6.50;4.70;;;;;;;26.15;38.32;101349.56;6197661;23;20028;-66
2023/06/11 00:52:16;;;;;;;5.55;4.07;;;;;;;26.14;38.20;101350.69;6197443;23;20025;-66
2023/06/11 00:54:43;;;;;;;6.70;4.68;;;;;;;26.13;38.26;101351.84;6196734;23;20027;-65
2023/06/11 00:57:12;;;;;;;6.13;4.13;;;;;;;26.10;38.28;101352.47;6195788;23;20028;-64
2023/06/11 00:59:41;;;;;;;5.25;4.13;;;;;;;26.01;38.39;101338.63;6197718;23;20079;-66
2023/06/11 01:02:18;;;;;;;5.63;4.43;;;;;;;26.06;38.34;101352.28;6196785;23;20037;-65
2023/06/11 01:04:48;;;;;;;6.45;5.13;;;;;;;26.05;38.35;101349.84;6197669;23;20026;-66
2023/06/11 01:07:22;;;;;;;6.43;4.35;;;;;;;26.03;38.33;101350.16;6198417;23;20025;-66
2023/06/11 01:09:51;;;;;;;6.20;4.50;;;;;;;26.00;38.45;101353.56;6196191;23;20021;-65
2023/06/11 01:12:21;;;;;;;8.55;5.05;;;;;;;25.95;38.58;101350.94;6196906;23;20140;-66
2023/06/11 01:14:49;;;;;;;8.23;4.65;;;;;;;25.94;38.39;101347.38;6197730;23;20024;-66
2023/06/11 01:17:23;;;;;;;5.47;4.30;;;;;;;25.92;38.51;101348.81;6197256;23;20024;-66
2023/06/11 01:20:11;;;;;;;6.47;4.80;;;;;;;25.89;38.74;101350.25;6197498;23;20028;-66
2023/06/11 01:22:54;;;;;;;5.68;3.90;;;;;;;25.86;38.74;101342.59;6197206;23;20029;-66
2023/06/11 01:25:31;;;;;;;7.85;4.88;;;;;;;25.83;38.79;101342.41;6197488;23;20052;-66
2023/06/11 01:28:04;;;;;;;9.25;5.20;;;;;;;25.81;38.77;101356.50;6196982;23;20017;-66
2023/06/11 01:30:35;;;;;;;9.38;4.30;;;;;;;25.80;38.80;101356.81;6196621;23;20025;-66
2023/06/11 01:33:05;;;;;;;4.90;4.15;;;;;;;25.74;38.74;101347.03;6197073;23;20028;-64
2023/06/11 01:35:34;;;;;;;6.82;4.60;;;;;;;25.75;38.88;101357.75;6195916;23;20020;-65
2023/06/11 01:38:02;;;;;;;6.00;5.00;;;;;;;25.71;39.01;101350.41;6196817;23;20067;-65
2023/06/11 01:40:30;;;;;;;8.68;4.68;;;;;;;25.72;39.00;101357.56;6196605;23;20056;-66
2023/06/11 01:42:58;;;;;;;5.38;4.13;;;;;;;25.66;38.94;101351.34;6196029;23;20044;-66
2023/06/11 01:45:32;;;;;;;7.57;5.35;;;;;;;25.66;39.02;101356.84;6196440;23;20037;-65
2023/06/11 01:48:00;;;;;;;7.55;5.10;;;;;;;25.64;39.06;101359.06;6197420;23;20020;-66
2023/06/11 01:50:28;;;;;;;6.35;4.90;;;;;;;25.62;39.00;101356.63;6196964;23;20025;-66
2023/06/11 01:52:56;;;;;;;8.20;5.20;;;;;;;25.60;39.14;101358.06;6197254;23;20021;-66
2023/06/11 01:55:24;;;;;;;6.93;4.65;;;;;;;25.57;39.08;101362.25;6196159;23;20032;-66
2023/06/11 01:57:52;;;;;;;7.85;5.03;;;;;;;25.56;39.17;101355.13;6195010;23;20083;-66
2023/06/11 02:00:19;;;;;;;6.65;4.57;;;;;;;25.55;39.33;101353.50;6196272;23;20184;-66
2023/06/11 02:02:49;;;;;;;5.55;4.25;;;;;;;25.54;39.35;101356.56;6197168;23;20052;-67
2023/06/11 02:05:17;;;;;;;7.78;4.60;;;;;;;25.51;39.14;101354.41;6196432;23;20025;-66
2023/06/11 02:07:46;;;;;;;6.10;4.30;;;;;;;25.50;39.30;101352.78;6196375;23;20025;-66
2023/06/11 02:10:14;;;;;;;7.28;4.68;;;;;;;25.49;39.26;101362.16;6196621;23;20017;-66
2023/06/11 02:12:41;;;;;;;5.97;4.65;;;;;;;25.49;39.36;101359.41;6195839;23;20092;-65
2023/06/11 02:15:10;;;;;;;7.70;5.18;;;;;;;25.46;39.21;101355.34;6196079;23;20458;-65
2023/06/11 02:17:38;;;;;;;6.63;4.72;;;;;;;25.45;39.58;101353.72;6196926;23;20025;-66
2023/06/11 02:20:09;;;;;;;9.57;4.80;;;;;;;25.44;39.63;101365.03;6196935;23;20025;-66
2023/06/11 02:22:36;;;;;;;5.53;4.53;;;;;;;25.43;39.58;101360.66;6196336;23;20037;-66
2023/06/11 02:25:05;;;;;;;8.65;5.18;;;;;;;25.40;39.37;101356.59;6196550;23;20025;-65
2023/06/11 02:27:33;;;;;;;5.82;4.75;;;;;;;25.38;39.62;101363.53;6195389;23;20028;-66
2023/06/11 02:30:01;;;;;;;6.75;4.60;;;;;;;25.38;39.62;101358.00;6196564;23;20048;-66
2023/06/11 02:32:28;;;;;;;9.13;4.63;;;;;;;25.37;39.45;101359.13;6197265;23;20029;-66
2023/06/11 02:34:56;;;;;;;5.95;5.20;;;;;;;25.35;39.62;101364.13;6196673;23;20024;-65
2023/06/11 02:37:25;;;;;;;7.55;5.00;;;;;;;25.33;39.80;101369.13;6196372;23;20024;-65
2023/06/11 02:39:53;;;;;;;7.00;5.38;;;;;;;25.31;39.63;101358.44;6197326;23;20044;-66
2023/06/11 02:42:21;;;;;;;7.82;4.55;;;;;;;25.30;39.81;101365.88;6197737;23;20088;-67
2023/06/11 02:44:48;;;;;;;6.35;4.45;;;;;;;25.25;39.68;101357.72;6198382;23;20025;-66
2023/06/11 02:47:16;;;;;;;7.28;4.93;;;;;;;25.26;39.89;101362.09;6197773;23;20030;-65
2023/06/11 02:49:44;;;;;;;7.53;5.00;;;;;;;25.25;39.60;101359.66;6198343;23;20883;-66
2023/06/11 02:52:12;;;;;;;7.78;5.13;;;;;;;25.21;39.84;101364.16;6198852;23;20052;-67
2023/06/11 02:54:41;;;;;;;9.75;5.60;;;;;;;25.19;39.73;101369.97;6198734;23;20028;-66
2023/06/11 02:57:09;;;;;;;7.70;5.32;;;;;;;25.15;40.09;101363.44;6196716;23;20025;-65
2023/06/11 02:59:37;;;;;;;5.85;4.38;;;;;;;25.14;40.05;101369.25;6198635;23;20025;-66
2023/06/11 03:02:05;;;;;;;7.05;5.15;;;;;;;25.12;40.28;101366.00;6198131;23;20104;-66
2023/06/11 03:04:33;;;;;;;8.73;5.07;;;;;;;25.10;40.01;101363.56;6199119;23;20036;-66
2023/06/11 03:07:01;;;;;;;8.00;4.90;;;;;;;25.07;40.02;101364.16;6197959;23;20054;-66
2023/06/11 03:09:29;;;;;;;6.18;4.80;;;;;;;25.05;39.96;101365.59;6199060;23;20021;-66
2023/06/11 03:11:58;;;;;;;8.07;5.70;;;;;;;25.03;40.14;101365.91;6196242;23;20029;-66
2023/06/11 03:14:26;;;;;;;6.03;4.75;;;;;;;24.95;40.17;101361.91;6199156;23;20025;-66
2023/06/11 03:16:54;;;;;;;7.75;5.28;;;;;;;24.97;40.19;101369.88;6197669;23;20082;-67
2023/06/11 03:19:22;;;;;;;8.88;5.15;;;;;;;24.95;40.30;101363.84;6197005;23;20021;-67
2023/06/11 03:21:50;;;;;;;5.93;4.80;;;;;;;24.91;40.25;101363.63;6197300;23;20040;-67
2023/06/11 03:24:17;;;;;;;7.20;5.55;;;;;;;24.89;40.48;101362.31;6198144;23;20036;-67
2023/06/11 03:26:45;;;;;;;6.80;5.15;;;;;;;24.87;40.21;101365.38;6196466;23;20027;-66
2023/06/11 03:29:14;;;;;;;5.93;4.53;;;;;;;24.85;40.41;101367.59;6197643;23;20021;-66
2023/06/11 03:31:43;;;;;;;7.60;4.93;;;;;;;24.82;40.52;101367.41;6196621;23;20044;-66
2023/06/11 03:34:11;;;;;;;9.82;4.80;;;;;;;24.83;40.44;101366.28;6197967;23;20087;-66
2023/06/11 03:36:39;;;;;;;7.13;4.68;;;;;;;24.79;40.57;101370.75;6197609;23;20029;-65
2023/06/11 03:39:07;;;;;;;9.48;5.22;;;;;;;24.76;40.65;101374.94;6197930;23;20337;-65
2023/06/11 03:41:35;;;;;;;7.18;5.05;;;;;;;24.75;40.55;101376.03;6196807;23;20025;-66
2023/06/11 03:44:03;;;;;;;6.40;4.82;;;;;;;24.75;40.43;101377.97;6198155;23;20025;-67
2023/06/11 03:46:32;;;;;;;6.78;5.15;;;;;;;24.75;40.93;101375.22;6197761;23;20097;-65
2023/06/11 03:49:00;;;;;;;6.85;4.90;;;;;;;24.73;40.88;101377.47;6198344;23;20024;-66
2023/06/11 03:51:27;;;;;;;8.23;4.80;;;;;;;24.63;40.92;101364.72;6198176;23;20027;-66
2023/06/11 03:53:55;;;;;;;6.70;5.03;;;;;;;24.62;40.77;101369.41;6198441;23;20048;-67
2023/06/11 03:56:23;;;;;;;7.90;5.65;;;;;;;24.68;40.74;101378.38;6196853;23;20021;-66
2023/06/11 03:58:51;;;;;;;5.45;4.28;;;;;;;24.67;40.79;101374.00;6198497;23;20029;-66
2023/06/11 04:01:18;;;;;;;8.75;5.75;;;;;;;24.65;40.63;101373.50;6193765;23;20367;-66
2023/06/11 04:03:48;;;;;;;8.57;5.05;;;;;;;24.62;40.59;101371.34;6193821;23;20025;-67
2023/06/11 04:06:16;;;;;;;9.98;4.47;;;;;;;24.60;40.78;101376.34;6193081;23;20108;-66
2023/06/11 04:08:44;;;;;;;7.95;4.82;;;;;;;24.60;41.21;101377.16;6195468;23;20029;-67
2023/06/11 04:11:12;;;;;;;8.38;5.63;;;;;;;24.58;41.08;101375.81;6191595;23;20083;-66
2023/06/11 04:13:40;;;;;;;7.35;5.50;;;;;;;24.57;41.22;101375.00;6192454;23;20029;-66
2023/06/11 04:16:07;;;;;;;7.00;4.90;;;;;;;24.55;41.31;101382.75;6193541;23;20052;-66
2023/06/11 04:18:35;;;;;;;7.07;5.00;;;;;;;24.54;40.98;101381.09;6194988;23;20100;-66
2023/06/11 04:21:04;;;;;;;10.35;5.70;;;;;;;24.46;40.93;101364.50;6194447;23;20048;-66
2023/06/11 04:23:33;;;;;;;7.35;5.05;;;;;;;24.51;41.13;101378.97;6195455;23;20046;-66
2023/06/11 04:26:02;;;;;;;6.75;5.35;;;;;;;24.48;41.26;101374.06;6192781;23;20025;-66
2023/06/11 04:28:30;;;;;;;7.63;4.68;;;;;;;24.49;40.97;101380.38;6195271;23;20028;-66
2023/06/11 04:30:58;;;;;;;8.98;4.95;;;;;;;24.47;41.32;101380.69;6194212;23;20017;-66
2023/06/11 04:33:32;;;;;;;5.72;4.78;;;;;;;24.46;41.44;101387.28;6195115;23;20051;-66
2023/06/11 04:36:01;;;;;;;6.32;5.05;;;;;;;24.43;41.54;101384.34;6194054;23;20309;-65
2023/06/11 04:38:30;;;;;;;8.10;5.35;;;;;;;24.39;41.12;101386.88;6194554;23;20031;-65
2023/06/11 04:40:58;;;;;;;9.90;5.50;;;;;;;24.37;41.48;101385.53;6192205;23;20020;-66
2023/06/11 04:43:27;;;;;;;7.43;5.13;;;;;;;24.38;41.31;101384.44;6195182;23;20052;-66
2023/06/11 04:45:55;;;;;;;7.63;5.00;;;;;;;24.36;41.26;101381.97;6191964;23;20062;-65
2023/06/11 04:48:24;;;;;;;6.75;5.10;;;;;;;24.32;41.35;101380.94;6192761;23;20025;-65
2023/06/11 04:50:52;;;;;;;8.50;5.63;;;;;;;24.34;41.65;101381.47;6192251;23;20059;-65
2023/06/11 04:53:22;;;;;;;9.23;5.88;;;;;;;24.31;41.50;101380.13;6193386;23;20427;-65
2023/06/11 04:55:54;;;;;;;6.18;5.03;;;;;;;24.31;41.71;101382.88;6191900;23;20055;-65
2023/06/11 04:58:23;;;;;;;6.88;5.28;;;;;;;24.32;41.43;101389.19;6193599;23;20033;-65
2023/06/11 05:00:52;;;;;;;6.90;5.32;;;;;;;24.32;41.33;101390.00;6190888;23;20036;-65
2023/06/11 05:03:21;;;;;;;7.10;4.60;;;;;;;24.34;41.68;101392.47;6193363;23;20052;-65
2023/06/11 05:05:51;;;;;;;8.60;5.45;;;;;;;24.34;41.54;101386.97;6192992;23;20025;-65
2023/06/11 05:08:20;;;;;;;7.32;4.85;;;;;;;24.37;41.49;101393.78;6192497;23;20077;-64
2023/06/11 05:10:48;;;;;;;7.60;4.93;;;;;;;24.35;41.48;101396.84;6191393;23;20047;-65
2023/06/11 05:13:22;;;;;;;6.25;5.13;;;;;;;24.38;41.67;101395.41;6192601;23;20091;-65
2023/06/11 05:15:49;;;;;;;7.45;5.40;;;;;;;24.40;41.57;101405.00;6192530;23;20029;-66
2023/06/11 05:18:17;;;;;;;6.38;5.07;;;;;;;24.41;41.50;101403.88;6192936;23;20403;-66
2023/06/11 05:20:47;;;;;;;8.30;4.50;;;;;;;24.43;41.34;101406.31;6192324;23;20021;-64
2023/06/11 05:23:15;;;;;;;8.10;5.65;;;;;;;24.45;41.75;101406.84;6191998;23;20470;-65
2023/06/11 05:25:46;;;;;;;7.30;4.75;;;;;;;24.46;41.79;101400.22;6191834;23;20059;-66
2023/06/11 05:28:16;;;;;;;7.22;5.03;;;;;;;24.48;41.94;101398.00;6193107;23;20084;-67
2023/06/11 05:30:45;;;;;;;7.22;4.88;;;;;;;24.47;41.95;101393.59;6192175;23;20028;-66
2023/06/11 05:33:13;;;;;;;7.50;4.63;;;;;;;24.50;41.66;101401.25;6196397;23;20060;-64
2023/06/11 05:35:43;;;;;;;6.40;5.40;;;;;;;24.52;41.98;101401.75;6196298;23;20060;-66
2023/06/11 05:38:11;;;;;;;8.52;4.85;;;;;;;24.54;41.62;101405.03;6196275;23;20024;-66
2023/06/11 05:40:39;;;;;;;6.07;4.78;;;;;;;24.55;42.01;101410.22;6189161;23;20028;-67
2023/06/11 05:43:07;;;;;;;7.15;5.65;;;;;;;24.57;42.20;101409.91;6192018;23;20029;-66
2023/06/11 05:45:36;;;;;;;8.05;5.38;;;;;;;24.58;42.03;101409.63;6192538;23;20029;-67
2023/06/11 05:48:05;;;;;;;5.63;4.50;;;;;;;24.59;41.88;101407.69;6192663;23;20021;-68
2023/06/11 05:50:33;;;;;;;6.18;4.88;;;;;;;24.60;41.96;101407.38;6192215;23;20025;-67
2023/06/11 05:53:01;;;;;;;6.38;4.72;;;;;;;24.62;42.07;101407.09;6192029;23;20032;-67
2023/06/11 05:55:29;;;;;;;6.07;4.90;;;;;;;24.63;41.96;101400.47;6192179;23;20411;-66
2023/06/11 05:57:56;;;;;;;7.05;4.80;;;;;;;24.64;42.44;101396.59;6192236;23;20052;-67
2023/06/11 06:00:24;;;;;;;6.72;5.07;;;;;;;24.66;42.38;101399.84;6189728;23;20021;-65
2023/06/11 06:02:53;;;;;;;5.50;4.53;;;;;;;24.68;42.26;101400.38;6191825;23;20029;-68
2023/06/11 06:05:21;;;;;;;6.82;5.25;;;;;;;24.70;42.17;101406.38;6191195;23;20044;-67
2023/06/11 06:07:49;;;;;;;7.65;4.35;;;;;;;24.70;42.50;101400.88;6192815;23;20024;-67
2023/06/11 06:10:17;;;;;;;7.30;4.68;;;;;;;24.73;42.17;101407.72;6191932;23;20036;-65
2023/06/11 06:12:44;;;;;;;7.28;4.75;;;;;;;24.77;42.67;101415.03;6192099;23;20091;-66
2023/06/11 06:15:12;;;;;;;7.03;5.13;;;;;;;24.82;42.95;101403.13;6191343;23;20036;-68
2023/06/11 06:17:40;;;;;;;6.43;5.03;;;;;;;24.84;42.17;101412.72;6193879;23;20036;-67
2023/06/11 06:20:10;;;;;;;6.68;4.65;;;;;;;24.85;42.75;101414.34;6195107;23;20021;-65
2023/06/11 06:22:38;;;;;;;8.50;5.10;;;;;;;24.93;43.30;101415.56;6195235;23;20083;-66
2023/06/11 06:25:07;;;;;;;5.93;4.93;;;;;;;24.97;42.67;101420.19;6193197;23;20093;-66
2023/06/11 06:27:36;;;;;;;11.68;4.90;;;;;;;24.95;42.74;101411.41;6191803;23;20024;-66
2023/06/11 06:30:05;;;;;;;8.90;5.05;;;;;;;24.95;42.81;101418.84;6193626;23;20025;-66
2023/06/11 06:32:33;;;;;;;5.80;4.65;;;;;;;24.96;42.76;101418.56;6194257;23;20033;-65
2023/06/11 06:35:01;;;;;;;6.45;4.85;;;;;;;24.98;42.98;101415.50;6194295;23;20394;-65
2023/06/11 06:37:30;;;;;;;7.80;4.75;;;;;;;25.00;42.79;101428.97;6193942;23;20029;-66
2023/06/11 06:39:58;;;;;;;7.88;5.88;;;;;;;25.08;43.26;101429.06;6193215;23;20029;-67
2023/06/11 06:42:26;;;;;;;5.78;4.60;;;;;;;25.11;42.74;101428.44;6192960;23;20052;-66
2023/06/11 06:44:55;;;;;;;8.55;4.85;;;;;;;25.24;43.33;101432.31;6193867;23;20076;-66
2023/06/11 06:47:25;;;;;;;8.75;4.75;;;;;;;25.26;43.04;101433.66;6192355;23;20410;-67
2023/06/11 06:49:53;;;;;;;9.05;4.47;;;;;;;25.31;42.87;101421.72;6191364;23;20208;-67
2023/06/11 06:52:21;;;;;;;5.80;4.80;;;;;;;25.35;43.19;101433.75;6191930;23;20025;-70
2023/06/11 06:54:51;;;;;;;8.98;4.22;;;;;;;25.31;43.31;101435.47;6193125;23;20029;-68
2023/06/11 06:57:19;;;;;;;5.68;4.95;;;;;;;25.35;42.89;101428.25;6191023;23;20025;-65
2023/06/11 06:59:46;;;;;;;9.25;4.63;;;;;;;25.43;43.37;101423.94;6193452;23;20037;-69
2023/06/11 07:02:14;;;;;;;5.63;4.70;;;;;;;25.42;43.53;101425.06;6194101;23;20021;-67
2023/06/11 07:04:42;;;;;;;5.90;4.55;;;;;;;25.43;43.47;101427.53;6192094;23;20079;-67
2023/06/11 07:07:10;;;;;;;9.77;4.93;;;;;;;25.44;43.58;101433.84;6191533;23;20025;-68
2023/06/11 07:09:38;;;;;;;9.02;5.10;;;;;;;25.38;43.44;101424.06;6192048;23;20029;-69
2023/06/11 07:12:08;;;;;;;6.57;5.28;;;;;;;25.33;42.74;101424.16;6190283;23;20103;-67
2023/06/11 07:14:35;;;;;;;7.10;4.70;;;;;;;25.28;43.05;101422.34;6194166;23;20028;-70
2023/06/11 07:17:04;;;;;;;8.07;4.97;;;;;;;25.23;42.92;101430.69;6192505;23;20121;-67
2023/06/11 07:19:31;;;;;;;7.35;4.85;;;;;;;25.19;43.20;101429.69;6193022;23;20044;-66
2023/06/11 07:21:59;;;;;;;6.35;4.70;;;;;;;25.19;42.83;101425.00;6193804;23;20546;-66
2023/06/11 07:24:27;;;;;;;7.10;4.82;;;;;;;25.26;44.00;101430.91;6194932;23;20025;-68
2023/06/11 07:26:55;;;;;;;7.22;5.32;;;;;;;25.27;43.61;101428.97;6194827;23;20041;-67
2023/06/11 07:29:25;;;;;;;7.95;5.53;;;;;;;25.24;43.79;101427.63;6199057;23;20020;-66
2023/06/11 07:31:52;;;;;;;13.23;6.43;;;;;;;25.26;43.84;101428.16;6198406;23;20020;-67
2023/06/11 07:34:20;;;;;;;7.68;5.65;;;;;;;25.28;44.33;101422.34;6199019;23;20032;-67
2023/06/11 07:36:48;;;;;;;7.03;5.10;;;;;;;25.24;43.55;101422.13;6197937;23;20025;-67
2023/06/11 07:39:17;;;;;;;7.90;5.20;;;;;;;25.20;43.81;101426.63;6198780;23;20072;-67
2023/06/11 07:41:45;;;;;;;17.35;7.10;;;;;;;25.26;44.35;101430.06;6196324;23;20021;-67
2023/06/11 07:44:12;;;;;;;10.90;6.65;;;;;;;25.27;43.93;101426.22;6198457;23;20031;-67
2023/06/11 07:46:42;;;;;;;13.73;6.30;;;;;;;25.30;44.28;101426.41;6197229;23;20141;-66
2023/06/11 07:49:10;;;;;;;12.63;6.78;;;;;;;25.46;44.03;101426.91;6199289;23;20094;-67
2023/06/11 07:51:38;;;;;;;12.75;6.15;;;;;;;25.38;43.96;101427.63;6197901;23;20392;-69
2023/06/11 07:54:06;;;;;;;11.98;6.38;;;;;;;25.40;44.24;101432.81;6198663;23;20452;-67
2023/06/11 07:56:34;;;;;;;10.90;5.28;;;;;;;25.42;44.29;101425.88;6197078;23;20029;-67
2023/06/11 07:59:02;;;;;;;12.90;6.20;;;;;;;25.46;44.52;101428.84;6198819;23;20091;-67
2023/06/11 08:01:30;;;;;;;13.25;6.78;;;;;;;25.57;44.30;101416.50;6197906;23;20048;-67
2023/06/11 08:03:59;;;;;;;16.25;6.47;;;;;;;25.47;44.60;101431.28;6198734;23;20024;-67
2023/06/11 08:06:27;;;;;;;10.90;6.05;;;;;;;25.45;44.24;101418.97;6198445;23;20079;-67
2023/06/11 08:08:55;;;;;;;9.57;5.97;;;;;;;25.39;44.05;101426.50;6199038;23;20025;-67
2023/06/11 08:11:23;;;;;;;11.13;5.72;;;;;;;25.37;44.35;101427.94;6196306;23;20017;-67
2023/06/11 08:13:51;;;;;;;9.88;5.68;;;;;;;25.33;44.30;101430.47;6198494;23;20095;-67
2023/06/11 08:16:19;;;;;;;10.43;5.70;;;;;;;25.33;44.49;101432.41;6197296;23;20025;-67
2023/06/11 08:18:47;;;;;;;11.23;6.18;;;;;;;25.33;44.72;101426.91;6198459;23;20072;-67
2023/06/11 08:21:16;;;;;;;12.18;5.88;;;;;;;25.33;44.60;101432.41;6197969;23;20021;-67
2023/06/11 08:23:44;;;;;;;10.00;5.72;;;;;;;25.31;44.56;101421.72;6198762;23;20040;-67
2023/06/11 08:26:14;;;;;;;9.70;5.10;;;;;;;25.39;44.62;101420.19;6196732;23;20132;-67
2023/06/11 08:28:42;;;;;;;8.27;5.00;;;;;;;25.40;44.95;101416.31;6198308;23;20048;-65
2023/06/11 08:31:10;;;;;;;8.52;5.32;;;;;;;25.39;44.77;101420.19;6195655;23;20458;-66
2023/06/11 08:33:38;;;;;;;10.40;5.38;;;;;;;25.36;44.56;101418.06;6197126;23;20072;-64
2023/06/11 08:36:07;;;;;;;11.25;5.68;;;;;;;25.38;45.01;101416.63;6197505;23;20028;-64
2023/06/11 08:38:36;;;;;;;9.50;5.40;;;;;;;25.45;45.06;101411.50;6198913;23;20128;-63
2023/06/11 08:41:06;;;;;;;9.68;6.18;;;;;;;25.47;45.05;101413.97;6195747;23;20029;-63
2023/06/11 08:43:34;;;;;;;6.68;4.53;;;;;;;25.47;45.09;101405.69;6198212;23;20025;-64
2023/06/11 08:46:01;;;;;;;8.35;5.25;;;;;;;25.47;44.99;101409.28;6197299;23;20029;-62
2023/06/11 08:48:30;;;;;;;13.88;5.78;;;;;;;25.46;45.09;101407.63;6198027;23;20087;-62
2023/06/11 08:51:01;;;;;;;7.68;5.32;;;;;;;25.49;44.91;101403.47;6197027;23;20021;-60
2023/06/11 08:53:31;;;;;;;5.95;4.78;;;;;;;25.50;44.91;101394.88;6198071;23;20052;-60
2023/06/11 08:56:00;;;;;;;6.65;5.10;;;;;;;25.51;45.01;101401.22;6186946;23;20028;-60
2023/06/11 08:58:31;;;;;;;5.72;4.72;;;;;;;25.53;45.12;101398.97;6191345;23;20028;-60
2023/06/11 09:00:59;;;;;;;6.32;4.75;;;;;;;25.54;45.13;101400.59;6192279;23;20486;-60
2023/06/11 09:03:27;;;;;;;7.63;4.82;;;;;;;25.54;45.10;101395.91;6192186;23;20091;-60
2023/06/11 09:05:55;;;;;;;7.10;4.97;;;;;;;25.56;45.06;101404.66;6192143;23;20510;-60
2023/06/11 09:08:23;;;;;;;7.90;5.22;;;;;;;25.59;45.25;101394.97;6192699;23;20056;-60
2023/06/11 09:10:51;;;;;;;6.93;5.03;;;;;;;25.54;45.30;101381.31;6189169;23;20035;-60
2023/06/11 09:13:25;;;;;;;5.90;4.50;;;;;;;25.64;45.22;101397.63;6192773;23;20025;-60
2023/06/11 09:15:55;;;;;;;5.97;4.72;;;;;;;25.65;45.24;101388.25;6191454;23;20080;-60
2023/06/11 09:18:25;;;;;;;7.07;4.97;;;;;;;25.69;45.08;101391.22;6192778;23;20065;-60
2023/06/11 09:20:54;;;;;;;5.47;4.30;;;;;;;25.71;45.05;101391.72;6192809;23;20592;-60
2023/06/11 09:23:26;;;;;;;7.15;4.63;;;;;;;25.76;45.34;101394.34;6193332;23;20049;-60
2023/06/11 09:25:58;;;;;;;6.68;4.50;;;;;;;25.79;45.39;101397.28;6190916;23;20040;-60
2023/06/11 09:28:32;;;;;;;10.05;4.82;;;;;;;25.82;45.20;101396.69;6192420;23;20095;-60
2023/06/11 09:31:02;;;;;;;7.05;4.43;;;;;;;25.83;45.07;101386.47;6192594;23;20036;-60
2023/06/11 09:33:31;;;;;;;6.80;4.60;;;;;;;25.86;45.25;101381.16;6192016;23;20025;-61
2023/06/11 09:35:59;;;;;;;7.45;4.53;;;;;;;25.91;45.33;101396.75;6191803;23;20024;-60
2023/06/11 09:38:27;;;;;;;5.18;4.55;;;;;;;25.92;45.26;101393.69;6193142;23;20024;-59
2023/06/11 09:40:57;;;;;;;6.18;4.50;;;;;;;25.96;45.25;101393.88;6190669;23;20028;-60
2023/06/11 09:43:25;;;;;;;6.07;4.45;;;;;;;25.96;45.18;101393.88;6193143;23;20029;-58
2023/06/11 09:45:55;;;;;;;6.18;4.10;;;;;;;26.02;45.19;101389.03;6192933;23;20025;-60
2023/06/11 09:48:24;;;;;;;5.88;4.65;;;;;;;26.05;45.32;101396.66;6192155;23;20029;-60
2023/06/11 09:50:53;;;;;;;6.30;4.53;;;;;;;26.08;45.07;101394.09;6192048;23;20115;-60
2023/06/11 09:53:23;;;;;;;5.32;4.15;;;;;;;26.13;44.96;101398.66;6197010;23;20021;-60
2023/06/11 09:55:51;;;;;;;4.97;3.92;;;;;;;26.14;44.90;101406.63;6194329;23;20073;-59
2023/06/11 09:58:23;;;;;;;11.32;4.90;;;;;;;26.16;45.05;101404.38;6207766;23;20029;-61
2023/06/11 10:00:52;;;;;;;6.10;4.38;;;;;;;26.24;43.54;101402.81;6196852;23;20309;-62
2023/06/11 10:03:21;;;;;;;6.43;4.43;;;;;;;26.41;43.01;101399.38;6194908;23;20029;-61
2023/06/11 10:05:49;;;;;;;6.05;4.10;;;;;;;26.47;42.58;101393.41;6196056;23;20032;-61
2023/06/11 10:08:20;;;;;;;8.27;4.80;;;;;;;26.53;42.07;101394.09;6197224;23;20032;-61
2023/06/11 10:10:52;;;;;;;6.10;4.30;;;;;;;26.58;41.43;101399.47;6193720;23;20100;-59
2023/06/11 10:13:30;;;;;;;8.60;4.10;;;;;;;26.75;42.40;101393.22;6197496;23;20021;-61
2023/06/11 10:15:59;;;;;;;9.35;4.25;;;;;;;26.73;42.54;101392.72;6195082;23;20056;-65
2023/06/11 10:18:30;;;;;;;7.60;4.28;;;;;;;26.73;42.99;101393.56;6196217;23;20114;-63
2023/06/11 10:21:00;;;;;;;5.97;4.28;;;;;;;26.75;42.98;101399.56;6196625;23;20076;-62
2023/06/11 10:23:36;;;;;;;8.07;4.70;;;;;;;26.77;43.36;101399.25;6198321;23;20017;-61
2023/06/11 10:26:05;;;;;;;5.40;3.88;;;;;;;26.78;43.07;101392.59;6196841;23;20053;-63
2023/06/11 10:28:37;;;;;;;7.28;3.58;;;;;;;26.77;42.94;101397.31;6198651;23;20343;-63
2023/06/11 10:31:05;;;;;;;5.07;4.07;;;;;;;26.79;43.46;101389.53;6198236;23;20025;-61
2023/06/11 10:33:44;;;;;;;6.18;3.88;;;;;;;26.81;42.88;101392.78;6198992;23;20057;-61
2023/06/11 10:36:22;;;;;;;7.13;4.40;;;;;;;26.83;42.95;101395.22;6198779;23;20029;-62
2023/06/11 10:38:51;;;;;;;6.95;3.72;;;;;;;26.87;43.30;101388.75;6198324;23;20025;-62
2023/06/11 10:41:29;;;;;;;6.28;4.10;;;;;;;26.90;42.94;101387.28;6197597;23;20029;-62
2023/06/11 10:43:57;;;;;;;4.70;4.00;;;;;;;26.92;43.12;101385.84;6198512;23;20021;-61
2023/06/11 10:46:25;;;;;;;4.78;3.95;;;;;;;26.96;42.99;101374.97;6198650;23;20049;-62
2023/06/11 10:48:55;;;;;;;5.38;4.30;;;;;;;27.01;43.02;101385.09;6198475;23;20028;-62
2023/06/11 10:51:23;;;;;;;6.43;3.70;;;;;;;27.05;43.16;101388.84;6198416;23;20087;-61
2023/06/11 10:53:55;;;;;;;6.85;3.70;;;;;;;27.07;43.34;101379.09;6198740;23;20017;-61
2023/06/11 10:56:25;;;;;;;6.97;4.45;;;;;;;27.09;43.03;101378.78;6197744;23;20028;-61
2023/06/11 10:58:55;;;;;;;6.00;3.85;;;;;;;27.16;43.52;101396.50;6198537;23;20025;-61
2023/06/11 11:01:23;;;;;;;4.43;3.58;;;;;;;27.21;43.23;101381.75;6200170;23;20079;-63
2023/06/11 11:03:53;;;;;;;8.00;4.68;;;;;;;27.26;42.98;101378.84;6200049;23;20447;-61
2023/06/11 11:06:26;;;;;;;4.30;3.55;;;;;;;27.38;43.14;101375.44;6200453;23;20028;-61
2023/06/11 11:08:56;;;;;;;6.57;4.00;;;;;;;27.42;43.25;101387.47;6200548;23;20021;-61
2023/06/11 11:11:26;;;;;;;7.68;3.67;;;;;;;27.44;42.85;101388.78;6198816;23;20329;-61
2023/06/11 11:13:54;;;;;;;5.60;3.50;;;;;;;27.48;42.79;101388.94;6200855;23;20017;-62
2023/06/11 11:16:22;;;;;;;6.63;3.90;;;;;;;27.52;42.65;101384.41;6200189;23;20021;-63
2023/06/11 11:18:50;;;;;;;4.80;3.65;;;;;;;27.57;42.43;101380.69;6200253;23;20025;-61
2023/06/11 11:21:19;;;;;;;5.68;3.30;;;;;;;27.62;42.21;101389.66;6200036;23;20029;-62
2023/06/11 11:23:49;;;;;;;7.13;3.88;;;;;;;27.68;42.13;101382.00;6200296;23;20021;-62
2023/06/11 11:26:18;;;;;;;9.30;3.70;;;;;;;27.77;42.16;101382.78;6199397;23;20021;-63
2023/06/11 11:28:46;;;;;;;7.57;3.80;;;;;;;27.82;42.12;101379.88;6200703;23;20025;-61
2023/06/11 11:31:17;;;;;;;5.22;3.63;;;;;;;27.84;42.28;101374.84;6199675;23;20028;-62